sensor_id;sensor_type;location;lat;lon;timestamp;temperature;humidity
792;DHT22;379;49.022;12.148;2022-09-01T00:00:38;14.60;99.90
792;DHT22;379;49.022;12.148;2022-09-01T00:03:06;14.60;99.90
792;DHT22;379;49.022;12.148;2022-09-01T00:05:35;14.60;99.90
792;DHT22;379;49.022;12.148;2022-09-01T00:08:04;14.60;99.90
792;DHT22;379;49.022;12.148;2022-09-01T00:10:31;14.60;99.90
792;DHT22;379;49.022;12.148;2022-09-01T00:12:58;14.60;99.90
792;DHT22;379;49.022;12.148;2022-09-01T00:15:25;14.60;99.90
792;DHT22;379;49.022;12.148;2022-09-01T00:17:52;14.60;99.90
792;DHT22;379;49.022;12.148;2022-09-01T00:20:18;14.60;99.90
792;DHT22;379;49.022;12.148;2022-09-01T00:22:45;14.60;99.90
792;DHT22;379;49.022;12.148;2022-09-01T00:25:13;14.60;99.90
792;DHT22;379;49.022;12.148;2022-09-01T00:27:41;14.60;99.90
792;DHT22;379;49.022;12.148;2022-09-01T00:30:09;14.60;99.90
792;DHT22;379;49.022;12.148;2022-09-01T00:32:36;14.60;99.90
792;DHT22;379;49.022;12.148;2022-09-01T00:35:03;14.50;99.90
792;DHT22;379;49.022;12.148;2022-09-01T00:37:31;14.50;99.90
792;DHT22;379;49.022;12.148;2022-09-01T00:39:57;14.50;99.90
792;DHT22;379;49.022;12.148;2022-09-01T00:42:25;14.50;99.90
792;DHT22;379;49.022;12.148;2022-09-01T00:44:52;14.50;99.90
792;DHT22;379;49.022;12.148;2022-09-01T00:47:19;14.50;99.90
792;DHT22;379;49.022;12.148;2022-09-01T00:49:47;14.40;99.90
792;DHT22;379;49.022;12.148;2022-09-01T00:52:16;14.40;99.90
792;DHT22;379;49.022;12.148;2022-09-01T00:54:48;14.40;99.90
792;DHT22;379;49.022;12.148;2022-09-01T00:57:16;14.40;99.90
792;DHT22;379;49.022;12.148;2022-09-01T00:59:47;14.50;99.90
792;DHT22;379;49.022;12.148;2022-09-01T01:02:15;14.40;99.90
792;DHT22;379;49.022;12.148;2022-09-01T01:04:41;14.40;99.90
792;DHT22;379;49.022;12.148;2022-09-01T01:07:10;14.40;99.90
792;DHT22;379;49.022;12.148;2022-09-01T01:09:40;14.40;99.90
792;DHT22;379;49.022;12.148;2022-09-01T01:12:08;14.40;99.90
792;DHT22;379;49.022;12.148;2022-09-01T01:14:38;14.40;99.90
792;DHT22;379;49.022;12.148;2022-09-01T01:17:07;14.40;99.90
792;DHT22;379;49.022;12.148;2022-09-01T01:22:05;14.40;99.90
792;DHT22;379;49.022;12.148;2022-09-01T01:24:52;14.40;99.90
792;DHT22;379;49.022;12.148;2022-09-01T01:27:20;14.40;99.90
792;DHT22;379;49.022;12.148;2022-09-01T01:29:47;14.30;99.90
792;DHT22;379;49.022;12.148;2022-09-01T01:32:17;14.30;99.90
792;DHT22;379;49.022;12.148;2022-09-01T01:34:45;14.30;99.90
792;DHT22;379;49.022;12.148;2022-09-01T01:37:13;14.30;99.90
792;DHT22;379;49.022;12.148;2022-09-01T01:39:40;14.20;99.90
792;DHT22;379;49.022;12.148;2022-09-01T01:42:10;14.20;99.90
792;DHT22;379;49.022;12.148;2022-09-01T01:44:38;14.20;99.90
792;DHT22;379;49.022;12.148;2022-09-01T01:47:07;14.30;99.90
792;DHT22;379;49.022;12.148;2022-09-01T01:49:38;14.20;99.90
792;DHT22;379;49.022;12.148;2022-09-01T01:52:08;14.20;99.90
792;DHT22;379;49.022;12.148;2022-09-01T01:54:36;14.20;99.90
792;DHT22;379;49.022;12.148;2022-09-01T01:57:03;14.30;99.90
792;DHT22;379;49.022;12.148;2022-09-01T01:59:31;14.30;99.90
792;DHT22;379;49.022;12.148;2022-09-01T02:01:59;14.30;99.90
792;DHT22;379;49.022;12.148;2022-09-01T02:04:26;14.30;99.90
792;DHT22;379;49.022;12.148;2022-09-01T02:06:58;14.30;99.90
792;DHT22;379;49.022;12.148;2022-09-01T02:09:25;14.30;99.90
792;DHT22;379;49.022;12.148;2022-09-01T02:11:52;14.30;99.90
792;DHT22;379;49.022;12.148;2022-09-01T02:14:22;14.30;99.90
792;DHT22;379;49.022;12.148;2022-09-01T02:16:50;14.30;99.90
792;DHT22;379;49.022;12.148;2022-09-01T02:19:20;14.30;99.90
792;DHT22;379;49.022;12.148;2022-09-01T02:21:47;14.30;99.90
792;DHT22;379;49.022;12.148;2022-09-01T02:24:19;14.30;99.90
792;DHT22;379;49.022;12.148;2022-09-01T02:26:46;14.30;99.90
792;DHT22;379;49.022;12.148;2022-09-01T02:29:15;14.30;99.90
792;DHT22;379;49.022;12.148;2022-09-01T02:31:47;14.30;99.90
792;DHT22;379;49.022;12.148;2022-09-01T02:34:16;14.30;99.90
792;DHT22;379;49.022;12.148;2022-09-01T02:36:47;14.30;99.90
792;DHT22;379;49.022;12.148;2022-09-01T02:39:15;14.30;99.90
792;DHT22;379;49.022;12.148;2022-09-01T02:41:42;14.30;99.90
792;DHT22;379;49.022;12.148;2022-09-01T02:44:09;14.30;99.90
792;DHT22;379;49.022;12.148;2022-09-01T02:46:37;14.30;99.90
792;DHT22;379;49.022;12.148;2022-09-01T02:49:06;14.30;99.90
792;DHT22;379;49.022;12.148;2022-09-01T02:51:41;14.30;99.90
792;DHT22;379;49.022;12.148;2022-09-01T02:54:09;14.30;99.90
792;DHT22;379;49.022;12.148;2022-09-01T02:56:37;14.30;99.90
792;DHT22;379;49.022;12.148;2022-09-01T02:59:04;14.30;99.90
792;DHT22;379;49.022;12.148;2022-09-01T03:01:38;14.30;99.90
792;DHT22;379;49.022;12.148;2022-09-01T03:04:06;14.30;99.90
792;DHT22;379;49.022;12.148;2022-09-01T03:06:35;14.30;99.90
792;DHT22;379;49.022;12.148;2022-09-01T03:09:06;14.30;99.90
792;DHT22;379;49.022;12.148;2022-09-01T03:11:34;14.30;99.90
792;DHT22;379;49.022;12.148;2022-09-01T03:14:02;14.30;99.90
792;DHT22;379;49.022;12.148;2022-09-01T03:16:29;14.30;99.90
792;DHT22;379;49.022;12.148;2022-09-01T03:18:56;14.30;99.90
792;DHT22;379;49.022;12.148;2022-09-01T03:21:23;14.30;99.90
792;DHT22;379;49.022;12.148;2022-09-01T03:23:51;14.30;99.90
792;DHT22;379;49.022;12.148;2022-09-01T03:26:21;14.30;99.90
792;DHT22;379;49.022;12.148;2022-09-01T03:28:49;14.30;99.90
792;DHT22;379;49.022;12.148;2022-09-01T03:31:17;14.30;99.90
792;DHT22;379;49.022;12.148;2022-09-01T03:33:44;14.30;99.90
792;DHT22;379;49.022;12.148;2022-09-01T03:36:11;14.30;99.90
792;DHT22;379;49.022;12.148;2022-09-01T03:38:43;14.30;99.90
792;DHT22;379;49.022;12.148;2022-09-01T03:41:14;14.30;99.90
792;DHT22;379;49.022;12.148;2022-09-01T03:43:44;14.20;99.90
792;DHT22;379;49.022;12.148;2022-09-01T03:46:12;14.20;99.90
792;DHT22;379;49.022;12.148;2022-09-01T03:48:44;14.20;99.90
792;DHT22;379;49.022;12.148;2022-09-01T03:51:12;14.20;99.90
792;DHT22;379;49.022;12.148;2022-09-01T03:53:39;14.20;99.90
792;DHT22;379;49.022;12.148;2022-09-01T03:56:06;14.20;99.90
792;DHT22;379;49.022;12.148;2022-09-01T03:58:33;14.20;99.90
792;DHT22;379;49.022;12.148;2022-09-01T04:01:02;14.20;99.90
792;DHT22;379;49.022;12.148;2022-09-01T04:03:31;14.20;99.90
792;DHT22;379;49.022;12.148;2022-09-01T04:06:00;14.20;99.90
792;DHT22;379;49.022;12.148;2022-09-01T04:08:28;14.20;99.90
792;DHT22;379;49.022;12.148;2022-09-01T04:10:57;14.20;99.90
792;DHT22;379;49.022;12.148;2022-09-01T04:13:27;14.20;99.90
792;DHT22;379;49.022;12.148;2022-09-01T04:15:55;14.20;99.90
792;DHT22;379;49.022;12.148;2022-09-01T04:18:24;14.20;99.90
792;DHT22;379;49.022;12.148;2022-09-01T04:20:52;14.20;99.90
792;DHT22;379;49.022;12.148;2022-09-01T04:23:22;14.20;99.90
792;DHT22;379;49.022;12.148;2022-09-01T04:25:53;14.20;99.90
792;DHT22;379;49.022;12.148;2022-09-01T04:28:22;14.20;99.90
792;DHT22;379;49.022;12.148;2022-09-01T04:30:54;14.30;99.90
792;DHT22;379;49.022;12.148;2022-09-01T04:33:23;14.30;99.90
792;DHT22;379;49.022;12.148;2022-09-01T04:35:50;14.30;99.90
792;DHT22;379;49.022;12.148;2022-09-01T04:38:19;14.30;99.90
792;DHT22;379;49.022;12.148;2022-09-01T04:40:47;14.30;99.90
792;DHT22;379;49.022;12.148;2022-09-01T04:43:14;14.30;99.90
792;DHT22;379;49.022;12.148;2022-09-01T04:45:41;14.30;99.90
792;DHT22;379;49.022;12.148;2022-09-01T04:48:08;14.20;99.90
792;DHT22;379;49.022;12.148;2022-09-01T04:50:39;14.20;99.90
792;DHT22;379;49.022;12.148;2022-09-01T04:53:06;14.20;99.90
792;DHT22;379;49.022;12.148;2022-09-01T04:55:37;14.20;99.90
792;DHT22;379;49.022;12.148;2022-09-01T04:58:09;14.30;99.90
792;DHT22;379;49.022;12.148;2022-09-01T05:00:38;14.30;99.90
792;DHT22;379;49.022;12.148;2022-09-01T05:03:05;14.40;99.90
792;DHT22;379;49.022;12.148;2022-09-01T05:05:37;14.40;99.90
792;DHT22;379;49.022;12.148;2022-09-01T05:08:07;14.40;99.90
792;DHT22;379;49.022;12.148;2022-09-01T05:10:41;14.40;99.90
792;DHT22;379;49.022;12.148;2022-09-01T05:13:10;14.40;99.90
792;DHT22;379;49.022;12.148;2022-09-01T05:15:38;14.40;99.90
792;DHT22;379;49.022;12.148;2022-09-01T05:18:12;14.40;99.90
792;DHT22;379;49.022;12.148;2022-09-01T05:20:41;14.40;99.90
792;DHT22;379;49.022;12.148;2022-09-01T05:23:10;14.40;99.90
792;DHT22;379;49.022;12.148;2022-09-01T05:25:40;14.40;99.90
792;DHT22;379;49.022;12.148;2022-09-01T05:28:08;14.50;99.90
792;DHT22;379;49.022;12.148;2022-09-01T05:30:37;14.50;99.90
792;DHT22;379;49.022;12.148;2022-09-01T05:33:04;14.50;99.90
792;DHT22;379;49.022;12.148;2022-09-01T05:35:35;14.60;99.90
792;DHT22;379;49.022;12.148;2022-09-01T05:38:04;14.80;99.90
792;DHT22;379;49.022;12.148;2022-09-01T05:40:35;15.10;99.90
792;DHT22;379;49.022;12.148;2022-09-01T05:43:06;15.50;99.90
792;DHT22;379;49.022;12.148;2022-09-01T05:45:35;15.80;99.90
792;DHT22;379;49.022;12.148;2022-09-01T05:48:03;16.10;99.90
792;DHT22;379;49.022;12.148;2022-09-01T05:50:30;16.60;99.90
792;DHT22;379;49.022;12.148;2022-09-01T05:52:56;16.90;99.90
792;DHT22;379;49.022;12.148;2022-09-01T05:55:25;17.40;99.90
792;DHT22;379;49.022;12.148;2022-09-01T05:57:52;18.00;99.90
792;DHT22;379;49.022;12.148;2022-09-01T06:00:19;18.20;99.90
792;DHT22;379;49.022;12.148;2022-09-01T06:02:47;18.50;99.90
792;DHT22;379;49.022;12.148;2022-09-01T06:05:13;18.90;99.90
792;DHT22;379;49.022;12.148;2022-09-01T06:07:40;19.10;99.90
792;DHT22;379;49.022;12.148;2022-09-01T06:10:08;19.40;99.90
792;DHT22;379;49.022;12.148;2022-09-01T06:12:38;19.40;99.90
792;DHT22;379;49.022;12.148;2022-09-01T06:15:06;19.40;99.90
792;DHT22;379;49.022;12.148;2022-09-01T06:17:40;19.40;99.90
792;DHT22;379;49.022;12.148;2022-09-01T06:20:08;19.50;99.90
792;DHT22;379;49.022;12.148;2022-09-01T06:22:35;19.70;99.90
792;DHT22;379;49.022;12.148;2022-09-01T06:25:02;19.70;99.90
792;DHT22;379;49.022;12.148;2022-09-01T06:27:31;19.50;99.90
792;DHT22;379;49.022;12.148;2022-09-01T06:29:59;19.40;99.90
792;DHT22;379;49.022;12.148;2022-09-01T06:32:39;19.30;99.90
792;DHT22;379;49.022;12.148;2022-09-01T06:35:08;19.30;99.90
792;DHT22;379;49.022;12.148;2022-09-01T06:37:36;19.30;99.90
792;DHT22;379;49.022;12.148;2022-09-01T06:40:04;19.20;99.90
792;DHT22;379;49.022;12.148;2022-09-01T06:42:35;19.10;99.90
792;DHT22;379;49.022;12.148;2022-09-01T06:45:04;19.20;99.90
792;DHT22;379;49.022;12.148;2022-09-01T06:47:34;19.40;99.90
792;DHT22;379;49.022;12.148;2022-09-01T06:50:01;19.50;99.90
792;DHT22;379;49.022;12.148;2022-09-01T06:52:28;19.60;99.90
792;DHT22;379;49.022;12.148;2022-09-01T06:54:55;19.70;99.90
792;DHT22;379;49.022;12.148;2022-09-01T06:57:22;19.70;99.90
792;DHT22;379;49.022;12.148;2022-09-01T06:59:51;19.70;99.90
792;DHT22;379;49.022;12.148;2022-09-01T07:02:19;19.70;99.90
792;DHT22;379;49.022;12.148;2022-09-01T07:04:46;19.80;99.90
792;DHT22;379;49.022;12.148;2022-09-01T07:07:14;19.80;99.90
792;DHT22;379;49.022;12.148;2022-09-01T07:09:41;19.50;99.90
792;DHT22;379;49.022;12.148;2022-09-01T07:12:08;19.40;98.70
792;DHT22;379;49.022;12.148;2022-09-01T07:14:35;19.50;99.30
792;DHT22;379;49.022;12.148;2022-09-01T07:17:02;19.40;98.10
792;DHT22;379;49.022;12.148;2022-09-01T07:19:30;19.40;99.90
792;DHT22;379;49.022;12.148;2022-09-01T07:22:00;19.60;96.70
792;DHT22;379;49.022;12.148;2022-09-01T07:24:26;19.60;97.40
792;DHT22;379;49.022;12.148;2022-09-01T07:26:54;19.60;96.30
792;DHT22;379;49.022;12.148;2022-09-01T07:29:20;19.70;96.80
792;DHT22;379;49.022;12.148;2022-09-01T07:31:50;20.10;98.00
792;DHT22;379;49.022;12.148;2022-09-01T07:34:20;20.10;94.70
792;DHT22;379;49.022;12.148;2022-09-01T07:36:48;20.10;95.10
792;DHT22;379;49.022;12.148;2022-09-01T07:39:15;20.10;95.20
792;DHT22;379;49.022;12.148;2022-09-01T07:41:42;19.90;92.70
792;DHT22;379;49.022;12.148;2022-09-01T07:44:09;19.70;92.90
792;DHT22;379;49.022;12.148;2022-09-01T07:46:38;19.70;93.40
792;DHT22;379;49.022;12.148;2022-09-01T07:49:05;19.70;92.80
792;DHT22;379;49.022;12.148;2022-09-01T07:51:31;19.80;93.50
792;DHT22;379;49.022;12.148;2022-09-01T07:54:00;20.10;94.20
792;DHT22;379;49.022;12.148;2022-09-01T07:56:28;20.20;92.40
792;DHT22;379;49.022;12.148;2022-09-01T07:58:56;20.20;92.70
792;DHT22;379;49.022;12.148;2022-09-01T08:01:24;20.10;91.10
792;DHT22;379;49.022;12.148;2022-09-01T08:03:53;20.00;91.00
792;DHT22;379;49.022;12.148;2022-09-01T08:06:21;19.90;91.50
792;DHT22;379;49.022;12.148;2022-09-01T08:08:51;19.80;92.60
792;DHT22;379;49.022;12.148;2022-09-01T08:11:21;19.80;91.30
792;DHT22;379;49.022;12.148;2022-09-01T08:13:50;19.70;91.10
792;DHT22;379;49.022;12.148;2022-09-01T08:16:17;19.80;91.70
792;DHT22;379;49.022;12.148;2022-09-01T08:18:44;19.80;91.20
792;DHT22;379;49.022;12.148;2022-09-01T08:21:12;19.70;91.30
792;DHT22;379;49.022;12.148;2022-09-01T08:23:40;19.90;92.10
792;DHT22;379;49.022;12.148;2022-09-01T08:26:08;20.30;91.30
792;DHT22;379;49.022;12.148;2022-09-01T08:28:37;20.60;90.40
792;DHT22;379;49.022;12.148;2022-09-01T08:31:06;21.00;91.30
792;DHT22;379;49.022;12.148;2022-09-01T08:33:33;21.40;87.70
792;DHT22;379;49.022;12.148;2022-09-01T08:36:00;21.50;84.30
792;DHT22;379;49.022;12.148;2022-09-01T08:38:27;21.50;84.80
792;DHT22;379;49.022;12.148;2022-09-01T08:40:56;21.50;82.10
792;DHT22;379;49.022;12.148;2022-09-01T08:43:31;21.40;82.90
792;DHT22;379;49.022;12.148;2022-09-01T08:46:08;21.30;81.80
792;DHT22;379;49.022;12.148;2022-09-01T08:48:39;21.20;79.80
792;DHT22;379;49.022;12.148;2022-09-01T08:51:13;21.50;82.10
792;DHT22;379;49.022;12.148;2022-09-01T08:53:43;21.80;80.30
792;DHT22;379;49.022;12.148;2022-09-01T08:56:12;22.20;80.40
792;DHT22;379;49.022;12.148;2022-09-01T08:58:39;22.30;77.00
792;DHT22;379;49.022;12.148;2022-09-01T09:01:16;22.10;76.10
792;DHT22;379;49.022;12.148;2022-09-01T09:03:59;22.30;77.10
792;DHT22;379;49.022;12.148;2022-09-01T09:06:36;22.40;76.60
792;DHT22;379;49.022;12.148;2022-09-01T09:09:07;22.60;76.40
792;DHT22;379;49.022;12.148;2022-09-01T09:12:11;22.70;74.40
792;DHT22;379;49.022;12.148;2022-09-01T09:14:53;22.70;74.20
792;DHT22;379;49.022;12.148;2022-09-01T09:17:29;22.60;76.20
792;DHT22;379;49.022;12.148;2022-09-01T09:20:00;22.30;71.60
792;DHT22;379;49.022;12.148;2022-09-01T09:22:27;22.10;71.60
792;DHT22;379;49.022;12.148;2022-09-01T09:24:58;22.10;72.40
792;DHT22;379;49.022;12.148;2022-09-01T09:27:30;22.00;74.50
792;DHT22;379;49.022;12.148;2022-09-01T09:30:00;22.10;74.40
792;DHT22;379;49.022;12.148;2022-09-01T09:32:45;22.20;76.50
792;DHT22;379;49.022;12.148;2022-09-01T09:35:25;22.40;77.00
792;DHT22;379;49.022;12.148;2022-09-01T09:37:52;22.40;75.30
792;DHT22;379;49.022;12.148;2022-09-01T09:40:22;22.50;75.40
792;DHT22;379;49.022;12.148;2022-09-01T09:43:01;22.50;73.60
792;DHT22;379;49.022;12.148;2022-09-01T09:45:30;22.40;71.50
792;DHT22;379;49.022;12.148;2022-09-01T09:48:03;22.30;70.40
792;DHT22;379;49.022;12.148;2022-09-01T09:50:33;22.20;70.30
792;DHT22;379;49.022;12.148;2022-09-01T09:53:11;22.10;69.10
792;DHT22;379;49.022;12.148;2022-09-01T09:55:52;22.10;71.40
792;DHT22;379;49.022;12.148;2022-09-01T09:58:21;22.30;70.80
792;DHT22;379;49.022;12.148;2022-09-01T10:00:58;22.40;70.10
792;DHT22;379;49.022;12.148;2022-09-01T10:03:39;22.30;69.10
792;DHT22;379;49.022;12.148;2022-09-01T10:06:30;22.30;69.40
792;DHT22;379;49.022;12.148;2022-09-01T10:08:58;22.40;69.90
792;DHT22;379;49.022;12.148;2022-09-01T10:11:29;22.40;69.60
792;DHT22;379;49.022;12.148;2022-09-01T10:13:56;22.30;68.60
792;DHT22;379;49.022;12.148;2022-09-01T10:16:26;22.10;67.40
792;DHT22;379;49.022;12.148;2022-09-01T10:18:57;21.80;68.10
792;DHT22;379;49.022;12.148;2022-09-01T10:21:34;21.70;70.20
792;DHT22;379;49.022;12.148;2022-09-01T10:24:09;21.60;69.10
792;DHT22;379;49.022;12.148;2022-09-01T10:26:38;21.40;70.40
792;DHT22;379;49.022;12.148;2022-09-01T10:29:13;21.10;70.20
792;DHT22;379;49.022;12.148;2022-09-01T10:31:41;21.00;72.50
792;DHT22;379;49.022;12.148;2022-09-01T10:34:13;21.00;73.80
792;DHT22;379;49.022;12.148;2022-09-01T10:36:43;21.10;74.00
792;DHT22;379;49.022;12.148;2022-09-01T10:39:12;21.20;75.00
792;DHT22;379;49.022;12.148;2022-09-01T10:41:48;21.20;74.10
792;DHT22;379;49.022;12.148;2022-09-01T10:44:22;21.30;74.10
792;DHT22;379;49.022;12.148;2022-09-01T10:46:50;21.40;74.50
792;DHT22;379;49.022;12.148;2022-09-01T10:52:56;21.90;75.30
792;DHT22;379;49.022;12.148;2022-09-01T10:55:26;22.20;74.20
792;DHT22;379;49.022;12.148;2022-09-01T10:58:05;22.40;73.00
792;DHT22;379;49.022;12.148;2022-09-01T11:00:57;22.40;73.40
792;DHT22;379;49.022;12.148;2022-09-01T11:03:52;22.50;73.10
792;DHT22;379;49.022;12.148;2022-09-01T11:09:30;23.00;71.50
792;DHT22;379;49.022;12.148;2022-09-01T11:15:03;23.30;71.00
792;DHT22;379;49.022;12.148;2022-09-01T11:17:31;23.40;69.10
792;DHT22;379;49.022;12.148;2022-09-01T11:20:04;23.40;71.00
792;DHT22;379;49.022;12.148;2022-09-01T11:22:36;23.40;70.90
792;DHT22;379;49.022;12.148;2022-09-01T11:25:34;23.30;68.60
792;DHT22;379;49.022;12.148;2022-09-01T11:28:10;23.10;69.60
792;DHT22;379;49.022;12.148;2022-09-01T11:30:58;22.90;68.60
792;DHT22;379;49.022;12.148;2022-09-01T11:33:37;22.70;69.30
792;DHT22;379;49.022;12.148;2022-09-01T11:36:13;22.70;68.80
792;DHT22;379;49.022;12.148;2022-09-01T11:38:46;22.80;68.20
792;DHT22;379;49.022;12.148;2022-09-01T11:41:23;23.10;66.20
792;DHT22;379;49.022;12.148;2022-09-01T11:43:53;23.40;64.50
792;DHT22;379;49.022;12.148;2022-09-01T11:46:26;24.00;65.30
792;DHT22;379;49.022;12.148;2022-09-01T11:48:54;24.40;61.80
792;DHT22;379;49.022;12.148;2022-09-01T11:51:21;24.50;61.60
792;DHT22;379;49.022;12.148;2022-09-01T11:53:49;24.60;62.00
792;DHT22;379;49.022;12.148;2022-09-01T11:56:19;24.40;61.60
792;DHT22;379;49.022;12.148;2022-09-01T11:58:51;24.00;59.90
792;DHT22;379;49.022;12.148;2022-09-01T12:01:19;23.60;60.80
792;DHT22;379;49.022;12.148;2022-09-01T12:03:49;23.30;59.90
792;DHT22;379;49.022;12.148;2022-09-01T12:06:20;23.00;60.00
792;DHT22;379;49.022;12.148;2022-09-01T12:08:54;22.70;61.40
792;DHT22;379;49.022;12.148;2022-09-01T12:11:23;22.50;62.40
792;DHT22;379;49.022;12.148;2022-09-01T12:13:57;22.60;63.60
792;DHT22;379;49.022;12.148;2022-09-01T12:16:25;22.70;63.30
792;DHT22;379;49.022;12.148;2022-09-01T12:18:55;22.70;63.20
792;DHT22;379;49.022;12.148;2022-09-01T12:21:26;22.80;63.30
792;DHT22;379;49.022;12.148;2022-09-01T12:23:54;23.00;62.80
792;DHT22;379;49.022;12.148;2022-09-01T12:26:35;23.10;60.50
792;DHT22;379;49.022;12.148;2022-09-01T12:29:04;23.40;62.60
792;DHT22;379;49.022;12.148;2022-09-01T12:31:31;23.70;61.30
792;DHT22;379;49.022;12.148;2022-09-01T12:33:58;23.90;59.60
792;DHT22;379;49.022;12.148;2022-09-01T12:36:30;24.10;59.40
792;DHT22;379;49.022;12.148;2022-09-01T12:39:19;24.10;60.20
792;DHT22;379;49.022;12.148;2022-09-01T12:42:00;24.00;61.10
792;DHT22;379;49.022;12.148;2022-09-01T12:44:30;23.90;61.00
792;DHT22;379;49.022;12.148;2022-09-01T12:47:01;23.60;60.00
792;DHT22;379;49.022;12.148;2022-09-01T12:49:37;23.30;58.90
792;DHT22;379;49.022;12.148;2022-09-01T12:52:17;22.90;59.50
792;DHT22;379;49.022;12.148;2022-09-01T12:54:47;22.70;60.40
792;DHT22;379;49.022;12.148;2022-09-01T12:57:24;22.60;61.40
792;DHT22;379;49.022;12.148;2022-09-01T13:00:07;22.50;60.00
792;DHT22;379;49.022;12.148;2022-09-01T13:02:36;22.40;60.70
792;DHT22;379;49.022;12.148;2022-09-01T13:05:22;22.40;58.60
792;DHT22;379;49.022;12.148;2022-09-01T13:07:52;22.40;59.90
792;DHT22;379;49.022;12.148;2022-09-01T13:10:19;22.60;60.90
792;DHT22;379;49.022;12.148;2022-09-01T13:12:46;22.80;61.30
792;DHT22;379;49.022;12.148;2022-09-01T13:15:14;23.10;61.20
792;DHT22;379;49.022;12.148;2022-09-01T13:17:41;23.30;60.80
792;DHT22;379;49.022;12.148;2022-09-01T13:20:09;23.50;61.40
792;DHT22;379;49.022;12.148;2022-09-01T13:22:37;23.70;61.20
792;DHT22;379;49.022;12.148;2022-09-01T13:25:06;23.80;59.00
792;DHT22;379;49.022;12.148;2022-09-01T13:27:33;24.10;59.50
792;DHT22;379;49.022;12.148;2022-09-01T13:30:00;24.20;58.90
792;DHT22;379;49.022;12.148;2022-09-01T13:32:28;24.20;58.00
792;DHT22;379;49.022;12.148;2022-09-01T13:34:55;24.10;58.30
792;DHT22;379;49.022;12.148;2022-09-01T13:37:22;24.30;58.10
792;DHT22;379;49.022;12.148;2022-09-01T13:39:49;24.50;58.50
792;DHT22;379;49.022;12.148;2022-09-01T13:42:16;24.60;57.80
792;DHT22;379;49.022;12.148;2022-09-01T13:44:43;24.70;57.80
792;DHT22;379;49.022;12.148;2022-09-01T13:47:11;24.60;58.40
792;DHT22;379;49.022;12.148;2022-09-01T13:49:39;24.50;57.70
792;DHT22;379;49.022;12.148;2022-09-01T13:52:06;24.40;57.60
792;DHT22;379;49.022;12.148;2022-09-01T13:54:33;24.20;57.90
792;DHT22;379;49.022;12.148;2022-09-01T13:57:00;24.20;58.10
792;DHT22;379;49.022;12.148;2022-09-01T13:59:27;24.00;58.90
792;DHT22;379;49.022;12.148;2022-09-01T14:01:54;23.80;57.70
792;DHT22;379;49.022;12.148;2022-09-01T14:04:21;23.70;57.10
792;DHT22;379;49.022;12.148;2022-09-01T14:06:50;23.60;57.60
792;DHT22;379;49.022;12.148;2022-09-01T14:09:16;23.70;58.30
792;DHT22;379;49.022;12.148;2022-09-01T14:11:43;23.80;56.80
792;DHT22;379;49.022;12.148;2022-09-01T14:14:10;24.00;57.50
792;DHT22;379;49.022;12.148;2022-09-01T14:16:37;24.10;57.20
792;DHT22;379;49.022;12.148;2022-09-01T14:19:04;24.20;57.90
792;DHT22;379;49.022;12.148;2022-09-01T14:21:31;24.20;56.90
792;DHT22;379;49.022;12.148;2022-09-01T14:23:59;24.20;58.10
792;DHT22;379;49.022;12.148;2022-09-01T14:26:26;24.00;57.50
792;DHT22;379;49.022;12.148;2022-09-01T14:28:53;23.70;55.00
792;DHT22;379;49.022;12.148;2022-09-01T14:31:20;23.40;55.00
792;DHT22;379;49.022;12.148;2022-09-01T14:33:48;23.30;56.40
792;DHT22;379;49.022;12.148;2022-09-01T14:36:18;23.20;57.70
792;DHT22;379;49.022;12.148;2022-09-01T14:38:45;23.20;58.30
792;DHT22;379;49.022;12.148;2022-09-01T14:41:16;23.40;58.30
792;DHT22;379;49.022;12.148;2022-09-01T14:43:46;23.60;58.40
792;DHT22;379;49.022;12.148;2022-09-01T14:46:14;23.90;59.00
792;DHT22;379;49.022;12.148;2022-09-01T14:48:42;24.00;54.40
792;DHT22;379;49.022;12.148;2022-09-01T14:51:19;23.80;54.00
792;DHT22;379;49.022;12.148;2022-09-01T14:53:48;23.50;55.20
792;DHT22;379;49.022;12.148;2022-09-01T14:56:16;23.30;55.40
792;DHT22;379;49.022;12.148;2022-09-01T14:58:43;23.10;56.30
792;DHT22;379;49.022;12.148;2022-09-01T15:01:12;22.90;56.80
792;DHT22;379;49.022;12.148;2022-09-01T15:03:39;22.80;57.10
792;DHT22;379;49.022;12.148;2022-09-01T15:06:06;22.70;58.20
792;DHT22;379;49.022;12.148;2022-09-01T15:08:34;22.70;58.70
792;DHT22;379;49.022;12.148;2022-09-01T15:11:01;22.80;59.20
792;DHT22;379;49.022;12.148;2022-09-01T15:13:29;22.90;58.60
792;DHT22;379;49.022;12.148;2022-09-01T15:15:56;22.80;56.90
792;DHT22;379;49.022;12.148;2022-09-01T15:18:23;22.80;56.30
792;DHT22;379;49.022;12.148;2022-09-01T15:20:50;22.80;57.20
792;DHT22;379;49.022;12.148;2022-09-01T15:23:20;22.90;57.80
792;DHT22;379;49.022;12.148;2022-09-01T15:25:49;23.00;57.50
792;DHT22;379;49.022;12.148;2022-09-01T15:28:16;23.20;58.20
792;DHT22;379;49.022;12.148;2022-09-01T15:30:45;23.40;57.50
792;DHT22;379;49.022;12.148;2022-09-01T15:33:13;23.40;58.30
792;DHT22;379;49.022;12.148;2022-09-01T15:35:40;23.40;57.60
792;DHT22;379;49.022;12.148;2022-09-01T15:38:07;23.40;56.80
792;DHT22;379;49.022;12.148;2022-09-01T15:40:38;23.20;56.80
792;DHT22;379;49.022;12.148;2022-09-01T15:43:06;23.00;56.50
792;DHT22;379;49.022;12.148;2022-09-01T15:45:34;22.90;57.90
792;DHT22;379;49.022;12.148;2022-09-01T15:48:02;22.70;57.10
792;DHT22;379;49.022;12.148;2022-09-01T15:50:29;22.50;54.90
792;DHT22;379;49.022;12.148;2022-09-01T15:52:58;22.30;54.50
792;DHT22;379;49.022;12.148;2022-09-01T15:55:28;22.00;55.30
792;DHT22;379;49.022;12.148;2022-09-01T15:57:56;21.80;56.50
792;DHT22;379;49.022;12.148;2022-09-01T16:00:25;21.60;56.10
792;DHT22;379;49.022;12.148;2022-09-01T16:02:52;21.40;55.70
792;DHT22;379;49.022;12.148;2022-09-01T16:05:22;21.20;56.10
792;DHT22;379;49.022;12.148;2022-09-01T16:07:49;21.00;57.10
792;DHT22;379;49.022;12.148;2022-09-01T16:10:17;20.80;56.80
792;DHT22;379;49.022;12.148;2022-09-01T16:12:44;20.60;57.90
792;DHT22;379;49.022;12.148;2022-09-01T16:15:18;20.40;58.40
792;DHT22;379;49.022;12.148;2022-09-01T16:20:47;20.10;59.70
792;DHT22;379;49.022;12.148;2022-09-01T16:23:17;20.00;59.90
792;DHT22;379;49.022;12.148;2022-09-01T16:25:45;20.00;59.70
792;DHT22;379;49.022;12.148;2022-09-01T16:28:22;19.90;61.50
792;DHT22;379;49.022;12.148;2022-09-01T16:30:52;19.80;61.60
792;DHT22;379;49.022;12.148;2022-09-01T16:33:21;19.80;62.60
792;DHT22;379;49.022;12.148;2022-09-01T16:36:01;19.80;62.60
792;DHT22;379;49.022;12.148;2022-09-01T16:38:35;19.80;61.80
792;DHT22;379;49.022;12.148;2022-09-01T16:41:11;19.70;61.30
792;DHT22;379;49.022;12.148;2022-09-01T16:43:46;19.70;62.00
792;DHT22;379;49.022;12.148;2022-09-01T16:46:19;19.70;64.20
792;DHT22;379;49.022;12.148;2022-09-01T16:48:51;19.60;64.10